createdAt,value
2022-09-20T00:02:50.881Z,100581.38
2022-09-20T00:08:17.627Z,100582.84
2022-09-20T00:13:42.559Z,100586.66
2022-09-20T00:19:07.061Z,100568.38
2022-09-20T00:24:35.563Z,100557.47
2022-09-20T00:29:59.378Z,100552.66
2022-09-20T00:35:24.393Z,100551.56
2022-09-20T00:40:49.576Z,100538.16
2022-09-20T00:46:23.427Z,100532.81
2022-09-20T00:51:55.702Z,100526.13
2022-09-20T00:57:21.037Z,100515.94
2022-09-20T01:02:49.401Z,100517.84
2022-09-20T01:08:15.105Z,100522.47
2022-09-20T01:13:40.604Z,100505.47
2022-09-20T01:19:17.606Z,100513.44
2022-09-20T01:24:49.489Z,100516.41
2022-09-20T01:30:20.157Z,100514.06
2022-09-20T01:35:48.750Z,100499.34
2022-09-20T01:41:21.995Z,100506.94
2022-09-20T01:46:54.084Z,100491.97
2022-09-20T01:52:56.988Z,100490.31
2022-09-20T01:59:07.160Z,100501.16
2022-09-20T02:05:05.843Z,100492.03
2022-09-20T02:10:51.036Z,100495.72
2022-09-20T02:16:40.886Z,100490.19
2022-09-20T02:22:18.419Z,100493.91
2022-09-20T02:27:58.069Z,100495.09
2022-09-20T02:33:45.406Z,100487.50
2022-09-20T02:39:17.715Z,100478.53
2022-09-20T02:44:50.669Z,100487.25
2022-09-20T02:50:26.167Z,100494.22
2022-09-20T02:56:04.210Z,100490.78
2022-09-20T03:01:44.332Z,100496.59
2022-09-20T03:07:20.022Z,100491.97
2022-09-20T03:12:58.513Z,100480.59
2022-09-20T03:18:35.514Z,100494.22
2022-09-20T03:24:11.265Z,100490.78
2022-09-20T03:29:50.149Z,100480.84
2022-09-20T03:35:28.594Z,100496.22
2022-09-20T03:41:11.073Z,100492.13
2022-09-20T03:46:45.560Z,100488.91
2022-09-20T03:52:26.902Z,100497.41
2022-09-20T03:58:14.843Z,100488.28
2022-09-20T04:03:50.446Z,100490.56
2022-09-20T04:09:45.016Z,100489.16
2022-09-20T04:15:23.594Z,100479.84
2022-09-20T04:20:52.163Z,100485.16
2022-09-20T04:26:23.576Z,100505.59
2022-09-20T04:31:54.598Z,100506.88
2022-09-20T04:37:27.769Z,100507.16
2022-09-20T04:43:33.466Z,100521.16
2022-09-20T04:49:23.173Z,100514.59
2022-09-20T04:55:31.251Z,100540.34
2022-09-20T05:01:24.671Z,100529.88
2022-09-20T05:07:17.046Z,100515.78
2022-09-20T05:13:05.461Z,100533.88
2022-09-20T05:19:10.301Z,100515.00
2022-09-20T05:25:03.110Z,100505.69
2022-09-20T05:30:38.068Z,100502.97
2022-09-20T05:36:10.665Z,100496.44
2022-09-20T05:41:44.152Z,100497.13
2022-09-20T05:47:19.365Z,100504.81
2022-09-20T05:52:53.814Z,100501.09
2022-09-20T05:58:33.317Z,100503.88
2022-09-20T06:04:10.450Z,100509.53
2022-09-20T06:10:01.605Z,100504.31
2022-09-20T06:15:35.348Z,100516.25
2022-09-20T06:21:14.654Z,100528.03
2022-09-20T06:26:44.708Z,100512.50
2022-09-20T06:32:09.623Z,100504.53
2022-09-20T06:38:03.262Z,100491.06
2022-09-20T06:43:31.620Z,100483.94
2022-09-20T06:48:59.225Z,100486.66
2022-09-20T06:54:27.154Z,100477.72
2022-09-20T06:59:51.741Z,100492.59
2022-09-20T07:05:18.053Z,100493.63
2022-09-20T07:10:45.229Z,100482.28
2022-09-20T07:16:12.850Z,100455.00
2022-09-20T07:21:37.493Z,100450.69
2022-09-20T07:27:06.780Z,100444.41
2022-09-20T07:32:31.054Z,100428.06
2022-09-20T07:37:58.327Z,100422.44
2022-09-20T07:43:23.944Z,100420.19
2022-09-20T07:48:47.640Z,100413.59
2022-09-20T07:54:12.144Z,100415.56
2022-09-20T07:59:37.650Z,100412.78
2022-09-20T08:05:01.716Z,100404.25
2022-09-20T08:10:26.831Z,100391.00
2022-09-20T08:15:52.283Z,100388.91
2022-09-20T08:21:19.019Z,100369.78
2022-09-20T08:26:43.770Z,100370.94
2022-09-20T08:32:09.293Z,100364.72
2022-09-20T08:37:33.796Z,100354.06
2022-09-20T08:42:58.632Z,100357.63
2022-09-20T08:48:28.685Z,100367.06
2022-09-20T08:53:57.026Z,100369.19
2022-09-20T08:59:26.030Z,100367.69
2022-09-20T09:04:53.852Z,100359.56
2022-09-20T09:10:18.190Z,100352.03
2022-09-20T09:15:46.520Z,100352.56
2022-09-20T09:21:20.490Z,100347.00
2022-09-20T09:26:44.874Z,100348.59
2022-09-20T09:32:24.609Z,100346.38
2022-09-20T09:37:57.619Z,100342.94
2022-09-20T09:43:27.047Z,100335.03
2022-09-20T09:49:10.513Z,100348.19
2022-09-20T09:54:40.264Z,100339.91
2022-09-20T10:00:19.610Z,100340.78
2022-09-20T10:05:56.835Z,100321.00
2022-09-20T10:11:32.044Z,100312.97
2022-09-20T10:17:13.508Z,100325.66
2022-09-20T10:23:00.326Z,100310.25
2022-09-20T10:28:50.792Z,100303.66
2022-09-20T10:34:39.582Z,100305.88
2022-09-20T10:40:18.906Z,100301.41
2022-09-20T10:46:14.374Z,100283.22
2022-09-20T10:51:47.917Z,100289.56
2022-09-20T10:57:41.193Z,100275.59
2022-09-20T11:03:22.265Z,100284.69
2022-09-20T11:08:50.943Z,100280.59
2022-09-20T11:14:19.573Z,100268.22
2022-09-20T11:19:53.270Z,100261.34
2022-09-20T11:25:22.342Z,100245.97
2022-09-20T11:30:56.838Z,100276.25
2022-09-20T11:36:29.509Z,100285.84
2022-09-20T11:41:56.960Z,100277.25
2022-09-20T11:47:49.800Z,100276.59
2022-09-20T11:53:21.737Z,100267.69
2022-09-20T11:58:49.064Z,100267.41
2022-09-20T12:04:38.599Z,100265.44
2022-09-20T12:10:09.478Z,100262.31
2022-09-20T12:15:39.124Z,100259.91
2022-09-20T12:21:15.951Z,100263.34
2022-09-20T12:26:49.375Z,100255.75
2022-09-20T12:32:41.020Z,100249.56
2022-09-20T12:38:18.432Z,100245.09
2022-09-20T12:43:57.700Z,100230.63
2022-09-20T12:50:07.800Z,100229.84
2022-09-20T12:55:43.839Z,100223.34
2022-09-20T13:01:40.493Z,100213.03
2022-09-20T13:07:44.171Z,100221.13
2022-09-20T13:13:31.508Z,100214.38
2022-09-20T13:19:05.303Z,100216.31
2022-09-20T13:24:33.716Z,100220.16
2022-09-20T13:30:11.123Z,100206.53
2022-09-20T13:35:36.415Z,100209.88
2022-09-20T13:41:06.361Z,100210.34
2022-09-20T13:46:33.272Z,100194.66
2022-09-20T13:51:58.576Z,100172.22
2022-09-20T13:57:27.220Z,100165.69
2022-09-20T14:02:54.690Z,100178.38
2022-09-20T14:08:25.760Z,100188.28
2022-09-20T14:13:54.191Z,100189.94
2022-09-20T14:19:24.592Z,100180.03
2022-09-20T14:25:02.692Z,100176.75
2022-09-20T14:30:31.063Z,100177.31
2022-09-20T14:35:55.545Z,100186.91
2022-09-20T14:41:34.038Z,100193.78
2022-09-20T14:46:59.246Z,100194.63
2022-09-20T14:52:36.634Z,100182.78
2022-09-20T14:58:08.480Z,100179.78
2022-09-20T15:03:34.682Z,100185.00
2022-09-20T15:09:01.108Z,100184.72
2022-09-20T15:14:27.306Z,100202.28
2022-09-20T15:19:53.862Z,100193.22
2022-09-20T15:25:20.881Z,100197.56
2022-09-20T15:30:46.949Z,100190.97
2022-09-20T15:36:11.875Z,100189.06
2022-09-20T15:41:37.127Z,100194.00
2022-09-20T15:47:04.552Z,100198.06
2022-09-20T15:52:34.594Z,100196.16
2022-09-20T15:57:58.924Z,100200.75
2022-09-20T16:03:31.132Z,100200.75
2022-09-20T16:08:56.547Z,100203.16
2022-09-20T16:14:20.720Z,100205.06
2022-09-20T16:19:48.700Z,100213.28
2022-09-20T16:25:13.419Z,100213.22
2022-09-20T16:30:37.425Z,100207.72
2022-09-20T16:36:03.511Z,100214.28
2022-09-20T16:41:29.113Z,100219.34
2022-09-20T16:46:53.331Z,100226.13
2022-09-20T16:52:18.824Z,100230.38
2022-09-20T16:57:43.736Z,100237.97
2022-09-20T17:03:08.291Z,100242.38
2022-09-20T17:08:38.832Z,100250.09
2022-09-20T17:14:03.080Z,100252.88
2022-09-20T17:19:28.877Z,100243.59
2022-09-20T17:24:54.854Z,100245.34
2022-09-20T17:30:19.655Z,100255.03
2022-09-20T17:35:52.466Z,100249.09
2022-09-20T17:41:20.776Z,100241.00
2022-09-20T17:46:48.000Z,100241.19
2022-09-20T17:52:12.992Z,100241.56
2022-09-20T17:57:39.092Z,100236.97
2022-09-20T18:03:05.104Z,100243.41
2022-09-20T18:08:29.138Z,100238.28
2022-09-20T18:13:55.544Z,100240.44
2022-09-20T18:19:21.484Z,100235.28
2022-09-20T18:24:46.296Z,100238.91
2022-09-20T18:30:13.841Z,100224.16
2022-09-20T18:35:42.791Z,100217.38
2022-09-20T18:41:09.043Z,100214.88
2022-09-20T18:46:37.946Z,100210.94
2022-09-20T18:52:02.800Z,100221.16
2022-09-20T18:57:27.777Z,100235.38
2022-09-20T19:03:08.102Z,100230.31
2022-09-20T19:08:39.492Z,100225.78
2022-09-20T19:14:13.404Z,100227.44
2022-09-20T19:19:48.217Z,100224.63
2022-09-20T19:25:23.932Z,100228.75
2022-09-20T19:30:49.049Z,100216.94
2022-09-20T19:36:16.708Z,100228.03
2022-09-20T19:41:51.039Z,100214.72
2022-09-20T19:47:26.214Z,100217.84
2022-09-20T19:52:52.207Z,100233.75
2022-09-20T19:58:17.271Z,100244.31
2022-09-20T20:03:47.607Z,100248.66
2022-09-20T20:09:24.932Z,100248.59
2022-09-20T20:14:58.353Z,100230.78
2022-09-20T20:20:30.247Z,100226.25
2022-09-20T20:26:03.374Z,100225.81
2022-09-20T20:31:29.531Z,100227.59
2022-09-20T20:37:01.003Z,100228.19
2022-09-20T20:42:27.333Z,100230.03
2022-09-20T20:47:57.333Z,100224.59
2022-09-20T20:53:23.449Z,100238.47
2022-09-20T20:58:50.026Z,100227.53
2022-09-20T21:04:16.928Z,100220.38
2022-09-20T21:09:41.802Z,100229.78
2022-09-20T21:15:09.129Z,100230.44
2022-09-20T21:20:39.378Z,100231.63
2022-09-20T21:26:08.500Z,100233.50
2022-09-20T21:31:36.361Z,100240.63
2022-09-20T21:37:01.192Z,100234.16
2022-09-20T21:42:27.284Z,100243.72
2022-09-20T21:47:54.449Z,100237.47
2022-09-20T21:53:20.619Z,100248.59
2022-09-20T21:58:45.983Z,100246.34
2022-09-20T22:04:13.201Z,100254.88
2022-09-20T22:09:40.132Z,100245.06
2022-09-20T22:15:06.128Z,100258.53
2022-09-20T22:20:32.364Z,100270.09
2022-09-20T22:26:00.666Z,100278.53
2022-09-20T22:31:27.272Z,100250.53
2022-09-20T22:36:53.934Z,100241.09
2022-09-20T22:42:19.089Z,100238.03
2022-09-20T22:47:44.939Z,100236.44
2022-09-20T22:53:10.947Z,100236.47
2022-09-20T22:58:37.943Z,100230.03
2022-09-20T23:04:07.776Z,100234.16
2022-09-20T23:09:35.447Z,100250.03
2022-09-20T23:15:00.151Z,100258.47
2022-09-20T23:20:24.974Z,100268.91
2022-09-20T23:25:51.363Z,100283.81
2022-09-20T23:31:17.578Z,100281.09
2022-09-20T23:36:42.522Z,100279.00
2022-09-20T23:42:08.814Z,100273.72
2022-09-20T23:47:33.485Z,100280.47
2022-09-20T23:52:58.056Z,100284.31
2022-09-20T23:58:25.087Z,100287.34
